createdAt,value
2017-11-22T00:00:58.540Z,97406.64
2017-11-22T00:02:03.210Z,97407.73
2017-11-22T00:03:07.862Z,97398.09
2017-11-22T00:04:12.784Z,97403.08
2017-11-22T00:05:17.435Z,97394.58
2017-11-22T00:06:22.042Z,97392.51
2017-11-22T00:07:26.658Z,97393.75
2017-11-22T00:08:32.320Z,97392.39
2017-11-22T00:09:36.919Z,97396.58
2017-11-22T00:10:41.990Z,97392.44
2017-11-22T00:11:46.617Z,97388.92
2017-11-22T00:12:51.310Z,97402.55
2017-11-22T00:13:55.894Z,97397.20
2017-11-22T00:15:00.468Z,97386.87
2017-11-22T00:16:05.065Z,97380.55
2017-11-22T00:17:10.137Z,97378.92
2017-11-22T00:18:14.730Z,97382.20
2017-11-22T00:19:19.350Z,97367.84
2017-11-22T00:20:23.944Z,97384.94
2017-11-22T00:21:28.612Z,97392.73
2017-11-22T00:22:33.240Z,97397.08
2017-11-22T00:23:38.306Z,97411.05
2017-11-22T00:24:42.953Z,97409.17
2017-11-22T00:25:47.594Z,97401.36
2017-11-22T00:26:52.214Z,97403.56
2017-11-22T00:27:56.818Z,97394.93
2017-11-22T00:29:01.406Z,97392.41
2017-11-22T00:30:06.380Z,97394.47
2017-11-22T00:31:11.024Z,97396.45
2017-11-22T00:32:15.581Z,97391.81
2017-11-22T00:33:20.559Z,97382.64
2017-11-22T00:34:25.198Z,97391.11
2017-11-22T00:35:29.821Z,97397.32
2017-11-22T00:36:34.846Z,97390.19
2017-11-22T00:37:39.610Z,97394.52
2017-11-22T00:38:44.300Z,97386.03
2017-11-22T00:39:48.903Z,97385.84
2017-11-22T00:40:53.493Z,97386.09
2017-11-22T00:41:58.082Z,97383.31
2017-11-22T00:43:03.180Z,97384.89
2017-11-22T00:44:07.774Z,97377.95
2017-11-22T00:45:12.341Z,97380.55
2017-11-22T00:46:16.962Z,97379.69
2017-11-22T00:47:21.558Z,97393.20
2017-11-22T00:48:26.198Z,97397.08
2017-11-22T00:49:31.218Z,97389.86
2017-11-22T00:50:35.815Z,97374.34
2017-11-22T00:51:40.453Z,97386.09
2017-11-22T00:52:45.008Z,97387.23
2017-11-22T00:53:49.592Z,97386.80
2017-11-22T00:54:54.230Z,97396.75
2017-11-22T00:55:59.960Z,97385.88
2017-11-22T00:57:04.630Z,97387.00
2017-11-22T00:58:09.345Z,97385.02
2017-11-22T00:59:13.952Z,97387.36
2017-11-22T01:00:18.776Z,97394.58
2017-11-22T01:01:23.433Z,97384.78
2017-11-22T01:02:28.423Z,97387.13
2017-11-22T01:03:33.019Z,97380.15
2017-11-22T01:04:37.640Z,97375.80
2017-11-22T01:05:42.260Z,97381.11
2017-11-22T01:06:47.502Z,97373.53
2017-11-22T01:07:52.098Z,97385.15
2017-11-22T01:08:57.131Z,97370.80
2017-11-22T01:10:01.799Z,97390.87
2017-11-22T01:11:06.459Z,97386.61
2017-11-22T01:12:11.141Z,97366.40
2017-11-22T01:13:15.806Z,97384.50
2017-11-22T01:14:20.406Z,97386.16
2017-11-22T01:15:25.428Z,97373.34
2017-11-22T01:16:30.039Z,97378.05
2017-11-22T01:17:34.689Z,97379.34
2017-11-22T01:18:40.342Z,97380.03
2017-11-22T01:19:45.070Z,97376.34
2017-11-22T01:20:49.768Z,97368.62
2017-11-22T01:21:54.720Z,97379.06
2017-11-22T01:22:59.349Z,97376.81
2017-11-22T01:24:03.974Z,97390.83
2017-11-22T01:25:08.617Z,97376.97
2017-11-22T01:26:13.250Z,97360.99
2017-11-22T01:27:17.921Z,97378.55
2017-11-22T01:28:23.497Z,97371.80
2017-11-22T01:29:28.098Z,97384.95
2017-11-22T01:30:32.710Z,97375.80
2017-11-22T01:31:37.281Z,97370.64
2017-11-22T01:32:41.926Z,97357.05
2017-11-22T01:33:46.482Z,97386.03
2017-11-22T01:34:51.525Z,97370.19
2017-11-22T01:35:56.090Z,97374.34
2017-11-22T01:37:00.664Z,97365.48
2017-11-22T01:38:05.232Z,97358.47
2017-11-22T01:39:09.831Z,97360.11
2017-11-22T01:40:14.429Z,97358.70
2017-11-22T01:41:18.997Z,97365.77
2017-11-22T01:42:23.615Z,97365.67
2017-11-22T01:43:28.930Z,97361.33
2017-11-22T01:44:33.480Z,97361.20
2017-11-22T01:45:38.126Z,97356.60
2017-11-22T01:46:42.717Z,97371.19
2017-11-22T01:47:48.106Z,97364.72
2017-11-22T01:48:52.639Z,97364.59
2017-11-22T01:49:57.229Z,97368.17
2017-11-22T01:51:02.071Z,97350.88
2017-11-22T01:52:07.206Z,97363.47
2017-11-22T01:53:11.707Z,97350.20
2017-11-22T01:54:16.303Z,97352.86
2017-11-22T01:55:20.820Z,97353.63
2017-11-22T01:56:25.402Z,97353.91
2017-11-22T01:57:30.038Z,97353.79
2017-11-22T01:58:35.097Z,97365.52
2017-11-22T01:59:39.689Z,97353.14
2017-11-22T02:00:49.051Z,97352.34
2017-11-22T02:01:53.642Z,97368.27
2017-11-22T02:03:02.519Z,97355.03
2017-11-22T02:04:07.596Z,97357.91
2017-11-22T02:05:12.187Z,97352.25
2017-11-22T02:06:16.947Z,97356.77
2017-11-22T02:07:21.534Z,97346.05
2017-11-22T02:08:26.226Z,97347.41
2017-11-22T02:09:30.867Z,97356.97
2017-11-22T02:10:35.839Z,97350.03
2017-11-22T02:11:40.475Z,97336.81
2017-11-22T02:12:45.050Z,97336.61
2017-11-22T02:13:49.663Z,97343.42
2017-11-22T02:14:54.118Z,97350.80
2017-11-22T02:15:58.531Z,97348.67
2017-11-22T02:17:03.360Z,97338.99
2017-11-22T02:18:07.808Z,97342.34
2017-11-22T02:19:12.242Z,97345.06
2017-11-22T02:20:16.849Z,97342.98
2017-11-22T02:21:21.508Z,97344.16
2017-11-22T02:22:26.072Z,97334.81
2017-11-22T02:23:31.199Z,97343.19
2017-11-22T02:24:35.811Z,97350.04
2017-11-22T02:25:40.418Z,97348.67
2017-11-22T02:26:45.077Z,97362.29
2017-11-22T02:27:49.560Z,97350.41
2017-11-22T02:28:54.334Z,97350.00
2017-11-22T02:29:59.172Z,97347.34
2017-11-22T02:31:03.744Z,97352.94
2017-11-22T02:32:08.284Z,97346.20
2017-11-22T02:33:13.134Z,97344.31
2017-11-22T02:34:17.760Z,97340.61
2017-11-22T02:35:22.473Z,97343.90
2017-11-22T02:36:27.547Z,97337.97
2017-11-22T02:37:32.159Z,97343.67
2017-11-22T02:38:36.750Z,97339.05
2017-11-22T02:39:41.480Z,97327.82
2017-11-22T02:40:46.135Z,97325.06
2017-11-22T02:41:50.762Z,97318.28
2017-11-22T02:42:55.701Z,97319.33
2017-11-22T02:44:00.279Z,97316.76
2017-11-22T02:45:04.952Z,97322.02
2017-11-22T02:46:09.535Z,97313.15
2017-11-22T02:47:14.145Z,97317.10
2017-11-22T02:48:18.583Z,97315.23
2017-11-22T02:49:23.632Z,97311.51
2017-11-22T02:50:28.220Z,97315.28
2017-11-22T02:51:33.569Z,97321.13
2017-11-22T02:52:38.184Z,97324.70
2017-11-22T02:53:42.867Z,97325.02
2017-11-22T02:54:47.543Z,97322.34
2017-11-22T02:55:52.784Z,97324.69
2017-11-22T02:56:57.703Z,97330.30
2017-11-22T02:58:02.360Z,97329.45
2017-11-22T02:59:06.849Z,97321.06
2017-11-22T03:00:11.586Z,97326.30
2017-11-22T03:01:16.085Z,97321.76
2017-11-22T03:02:20.992Z,97316.63
2017-11-22T03:03:25.450Z,97319.82
2017-11-22T03:04:29.899Z,97322.27
2017-11-22T03:05:34.526Z,97318.64
2017-11-22T03:06:39.185Z,97322.35
2017-11-22T03:07:43.843Z,97321.09
2017-11-22T03:08:48.756Z,97315.19
2017-11-22T03:09:53.358Z,97315.11
2017-11-22T03:10:57.931Z,97315.90
2017-11-22T03:12:02.628Z,97314.05
2017-11-22T03:13:07.274Z,97306.97
2017-11-22T03:14:11.919Z,97309.41
2017-11-22T03:15:16.866Z,97310.23
2017-11-22T03:16:21.738Z,97308.22
2017-11-22T03:17:26.377Z,97312.39
2017-11-22T03:18:31.090Z,97303.97
2017-11-22T03:19:35.743Z,97316.23
2017-11-22T03:20:40.396Z,97307.54
2017-11-22T03:21:45.398Z,97297.94
2017-11-22T03:22:49.907Z,97305.22
2017-11-22T03:23:54.366Z,97296.86
2017-11-22T03:24:58.897Z,97300.50
2017-11-22T03:26:03.363Z,97303.15
2017-11-22T03:27:07.836Z,97297.85
2017-11-22T03:28:12.742Z,97291.38
2017-11-22T03:29:17.237Z,97301.56
2017-11-22T03:30:21.763Z,97292.31
2017-11-22T03:31:26.459Z,97286.57
2017-11-22T03:32:31.072Z,97313.21
2017-11-22T03:33:35.654Z,97295.69
2017-11-22T03:34:40.835Z,97295.60
2017-11-22T03:35:45.478Z,97288.59
2017-11-22T03:36:50.056Z,97292.81
2017-11-22T03:37:54.732Z,97293.55
2017-11-22T03:38:59.342Z,97291.98
2017-11-22T03:40:04.025Z,97287.61
2017-11-22T03:41:09.303Z,97296.16
2017-11-22T03:42:13.935Z,97294.67
2017-11-22T03:43:18.529Z,97302.45
2017-11-22T03:44:23.076Z,97295.39
2017-11-22T03:45:27.728Z,97298.15
2017-11-22T03:46:32.374Z,97293.80
2017-11-22T03:47:37.591Z,97301.98
2017-11-22T03:48:42.209Z,97298.95
2017-11-22T03:49:51.722Z,97295.52
2017-11-22T03:51:01.241Z,97300.75
2017-11-22T03:52:10.910Z,97298.77
2017-11-22T03:53:21.117Z,97304.89
2017-11-22T03:54:25.723Z,97309.51
2017-11-22T03:55:30.308Z,97312.12
2017-11-22T03:56:34.921Z,97303.21
2017-11-22T03:58:05.700Z,97307.47
2017-11-22T03:59:10.631Z,97300.48
2017-11-22T04:00:15.341Z,97309.66
2017-11-22T04:01:24.831Z,97307.59
2017-11-22T04:02:31.499Z,97310.00
2017-11-22T04:03:38.964Z,97312.08
2017-11-22T04:04:43.920Z,97312.88
2017-11-22T04:05:53.490Z,97312.98
2017-11-22T04:06:58.150Z,97311.23
2017-11-22T04:08:03.060Z,97312.41
2017-11-22T04:09:07.700Z,97316.81
2017-11-22T04:10:12.403Z,97315.95
2017-11-22T04:11:24.297Z,97311.05
2017-11-22T04:12:29.270Z,97313.92
2017-11-22T04:13:33.905Z,97307.61
2017-11-22T04:14:38.576Z,97306.12
2017-11-22T04:15:43.180Z,97301.48
2017-11-22T04:16:47.812Z,97295.16
2017-11-22T04:17:56.092Z,97301.33
2017-11-22T04:19:05.789Z,97300.52
2017-11-22T04:20:11.358Z,97292.59
2017-11-22T04:21:15.999Z,97296.52
2017-11-22T04:22:20.610Z,97299.56
2017-11-22T04:23:25.275Z,97294.98
2017-11-22T04:24:30.397Z,97288.53
2017-11-22T04:25:35.007Z,97285.11
2017-11-22T04:26:39.699Z,97291.58
2017-11-22T04:27:44.385Z,97298.02
2017-11-22T04:28:49.058Z,97288.37
2017-11-22T04:29:53.738Z,97294.25
2017-11-22T04:30:58.809Z,97297.60
2017-11-22T04:32:06.401Z,97292.81
2017-11-22T04:33:11.006Z,97299.46
2017-11-22T04:34:15.689Z,97309.75
2017-11-22T04:35:20.233Z,97295.63
2017-11-22T04:36:24.735Z,97289.86
2017-11-22T04:37:29.948Z,97292.20
2017-11-22T04:38:34.430Z,97293.29
2017-11-22T04:39:38.944Z,97294.20
2017-11-22T04:40:43.452Z,97296.88
2017-11-22T04:41:47.980Z,97282.95
2017-11-22T04:42:52.492Z,97293.94
2017-11-22T04:43:57.300Z,97287.77
2017-11-22T04:45:02.739Z,97298.52
2017-11-22T04:46:07.395Z,97293.62
2017-11-22T04:47:12.150Z,97284.96
2017-11-22T04:48:16.749Z,97289.44
2017-11-22T04:49:21.484Z,97284.89
2017-11-22T04:50:26.032Z,97289.02
2017-11-22T04:51:30.563Z,97301.40
2017-11-22T04:52:35.136Z,97295.59
2017-11-22T04:53:39.749Z,97283.56
2017-11-22T04:54:44.450Z,97286.03
2017-11-22T04:55:49.059Z,97285.23
2017-11-22T04:56:54.007Z,97284.20
2017-11-22T04:57:58.698Z,97286.80
2017-11-22T04:59:03.323Z,97279.66
2017-11-22T05:00:07.946Z,97270.78
2017-11-22T05:15:23.700Z,97268.75
2017-11-22T05:16:28.351Z,97282.48
2017-11-22T05:17:32.985Z,97264.87
2017-11-22T05:18:38.233Z,97266.66
2017-11-22T05:19:42.831Z,97267.58
2017-11-22T05:20:47.829Z,97269.06
2017-11-22T05:21:53.277Z,97272.00
2017-11-22T05:22:57.925Z,97276.06
2017-11-22T05:24:02.578Z,97266.70
2017-11-22T05:25:07.220Z,97266.20
2017-11-22T05:26:11.810Z,97270.90
2017-11-22T05:27:16.860Z,97267.59
2017-11-22T05:28:21.504Z,97266.60
2017-11-22T05:29:26.119Z,97269.86
2017-11-22T05:30:30.777Z,97276.17
2017-11-22T05:31:35.407Z,97269.66
2017-11-22T05:32:40.151Z,97260.86
2017-11-22T05:33:45.202Z,97257.59
2017-11-22T05:34:49.983Z,97264.83
2017-11-22T05:35:54.563Z,97261.16
2017-11-22T05:36:59.191Z,97262.69
2017-11-22T05:38:03.824Z,97252.02
2017-11-22T05:39:08.454Z,97256.00
2017-11-22T05:40:13.588Z,97256.83
2017-11-22T05:41:18.741Z,97250.58
2017-11-22T05:42:23.354Z,97244.50
2017-11-22T05:43:27.951Z,97257.14
2017-11-22T05:44:32.548Z,97249.45
2017-11-22T05:45:37.177Z,97259.43
2017-11-22T05:46:42.335Z,97251.11
2017-11-22T05:47:46.982Z,97247.80
2017-11-22T05:48:51.604Z,97258.63
2017-11-22T05:49:56.252Z,97245.31
2017-11-22T05:51:01.146Z,97254.55
2017-11-22T05:52:05.738Z,97244.41
2017-11-22T05:53:10.792Z,97234.13
2017-11-22T05:54:15.382Z,97252.23
2017-11-22T05:55:20.143Z,97252.41
2017-11-22T05:56:24.832Z,97240.92
2017-11-22T05:57:29.550Z,97246.60
2017-11-22T05:58:34.223Z,97254.28
2017-11-22T05:59:40.290Z,97272.12
2017-11-22T06:00:54.420Z,97246.52
2017-11-22T06:01:59.050Z,97249.20
2017-11-22T06:03:03.683Z,97250.58
2017-11-22T06:04:08.410Z,97247.90
2017-11-22T06:05:13.019Z,97247.36
2017-11-22T06:06:18.000Z,97237.75
2017-11-22T06:07:22.750Z,97243.16
2017-11-22T06:08:27.375Z,97246.78
2017-11-22T06:09:32.002Z,97240.84
2017-11-22T06:10:36.919Z,97248.22
2017-11-22T06:11:42.059Z,97255.72
2017-11-22T06:12:47.900Z,97252.45
2017-11-22T06:13:52.531Z,97253.44
2017-11-22T06:14:57.228Z,97253.84
2017-11-22T06:16:01.945Z,97255.44
2017-11-22T06:17:06.565Z,97253.12
2017-11-22T06:18:11.244Z,97260.02
2017-11-22T06:19:16.241Z,97256.07
2017-11-22T06:20:20.971Z,97251.30
2017-11-22T06:21:25.691Z,97267.28
2017-11-22T06:22:30.378Z,97265.06
2017-11-22T06:23:35.012Z,97254.78
2017-11-22T06:24:39.695Z,97258.18
2017-11-22T06:25:44.845Z,97254.28
2017-11-22T06:26:49.504Z,97258.17
2017-11-22T06:27:54.238Z,97253.27
2017-11-22T06:28:58.897Z,97258.03
2017-11-22T06:30:38.031Z,97256.91
2017-11-22T06:31:43.310Z,97266.27
2017-11-22T06:32:47.994Z,97262.56
2017-11-22T06:33:52.683Z,97263.63
2017-11-22T06:34:57.374Z,97263.62
2017-11-22T06:36:02.081Z,97262.73
2017-11-22T06:37:07.687Z,97267.91
2017-11-22T06:38:12.716Z,97277.03
2017-11-22T06:39:17.398Z,97279.40
2017-11-22T06:40:22.117Z,97294.59
2017-11-22T06:41:26.860Z,97282.61
2017-11-22T06:42:31.596Z,97263.03
2017-11-22T06:43:36.171Z,97274.53
2017-11-22T06:44:41.019Z,97273.31
2017-11-22T06:45:45.712Z,97279.76
2017-11-22T06:46:50.613Z,97284.05
2017-11-22T06:47:55.322Z,97282.03
2017-11-22T06:49:00.052Z,97274.63
2017-11-22T06:50:04.894Z,97278.75
2017-11-22T06:51:09.626Z,97287.18
2017-11-22T06:52:14.300Z,97279.08
2017-11-22T06:53:19.055Z,97279.17
2017-11-22T06:54:23.784Z,97285.73
2017-11-22T06:55:28.887Z,97298.74
2017-11-22T06:56:34.200Z,97284.22
2017-11-22T06:57:39.041Z,97287.13
2017-11-22T06:58:43.927Z,97291.70
2017-11-22T06:59:48.759Z,97292.27
2017-11-22T07:00:53.640Z,97279.55
2017-11-22T07:02:00.392Z,97286.50
2017-11-22T07:03:10.920Z,97273.53
2017-11-22T07:04:16.374Z,97285.64
2017-11-22T07:05:21.100Z,97283.44
2017-11-22T07:06:25.751Z,97282.30
2017-11-22T07:07:30.554Z,97296.69
2017-11-22T07:08:35.516Z,97289.92
2017-11-22T07:09:40.828Z,97296.58
2017-11-22T07:10:45.762Z,97287.67
2017-11-22T07:11:50.771Z,97280.98
2017-11-22T07:12:55.612Z,97283.14
2017-11-22T07:14:00.435Z,97299.02
2017-11-22T07:15:05.243Z,97302.65
2017-11-22T07:16:10.752Z,97290.00
2017-11-22T07:17:20.525Z,97286.45
2017-11-22T07:18:25.365Z,97291.72
2017-11-22T07:19:30.267Z,97293.27
2017-11-22T07:20:34.965Z,97292.30
2017-11-22T07:21:39.811Z,97295.85
2017-11-22T07:22:45.042Z,97295.63
2017-11-22T07:23:50.052Z,97300.73
2017-11-22T07:24:54.875Z,97296.22
2017-11-22T07:26:00.362Z,97301.19
2017-11-22T07:27:05.229Z,97298.74
2017-11-22T07:28:11.007Z,97291.00
2017-11-22T07:29:16.404Z,97291.14
2017-11-22T07:30:21.408Z,97298.37
2017-11-22T07:31:26.258Z,97294.25
2017-11-22T07:32:31.889Z,97303.86
2017-11-22T07:33:36.689Z,97307.39
2017-11-22T07:34:41.505Z,97310.28
2017-11-22T07:35:51.754Z,97306.00
2017-11-22T07:37:01.492Z,97304.42
2017-11-22T07:38:06.410Z,97301.61
2017-11-22T07:39:11.275Z,97307.20
2017-11-22T07:40:16.079Z,97298.83
2017-11-22T07:41:20.852Z,97318.23
2017-11-22T07:42:26.089Z,97309.38
2017-11-22T07:43:30.908Z,97312.86
2017-11-22T07:44:35.749Z,97313.50
2017-11-22T07:45:40.540Z,97310.66
2017-11-22T07:46:46.398Z,97308.69
2017-11-22T07:47:56.336Z,97316.66
2017-11-22T07:49:01.306Z,97312.70
2017-11-22T07:50:06.117Z,97315.94
2017-11-22T07:51:15.841Z,97321.54
2017-11-22T07:52:23.702Z,97323.73
2017-11-22T07:53:28.527Z,97318.78
2017-11-22T07:54:33.910Z,97321.41
2017-11-22T07:55:38.553Z,97327.50
2017-11-22T07:56:43.177Z,97326.55
2017-11-22T07:57:50.856Z,97329.23
2017-11-22T07:58:55.712Z,97323.64
2017-11-22T08:00:00.607Z,97326.09
2017-11-22T08:01:06.092Z,97329.62
2017-11-22T08:02:11.268Z,97320.08
2017-11-22T08:03:22.846Z,97320.23
2017-11-22T08:04:28.688Z,97316.89
2017-11-22T08:05:33.668Z,97317.89
2017-11-22T08:06:38.490Z,97310.43
2017-11-22T08:07:43.598Z,97310.75
2017-11-22T08:08:48.396Z,97317.00
2017-11-22T08:09:53.203Z,97313.55
2017-11-22T08:10:58.076Z,97308.49
2017-11-22T08:12:02.878Z,97318.23
2017-11-22T08:13:08.851Z,97313.95
2017-11-22T08:14:14.192Z,97318.11
2017-11-22T08:15:18.871Z,97327.71
2017-11-22T08:16:23.640Z,97324.80
2017-11-22T08:17:28.514Z,97321.05
2017-11-22T08:18:33.404Z,97327.39
2017-11-22T08:19:38.251Z,97321.30
2017-11-22T08:20:51.221Z,97329.55
2017-11-22T08:21:56.380Z,97319.72
2017-11-22T08:23:01.468Z,97332.87
2017-11-22T08:24:06.310Z,97324.23
2017-11-22T08:25:14.876Z,97326.03
2017-11-22T08:26:19.620Z,97350.21
2017-11-22T08:27:24.805Z,97343.52
2017-11-22T08:28:30.593Z,97324.73
2017-11-22T08:29:35.452Z,97323.03
2017-11-22T08:30:43.372Z,97326.77
2017-11-22T08:31:48.274Z,97328.22
2017-11-22T08:32:53.050Z,97331.27
2017-11-22T08:33:58.305Z,97323.31
2017-11-22T08:35:03.196Z,97322.36
2017-11-22T08:36:08.005Z,97324.48
2017-11-22T08:37:12.688Z,97343.42
2017-11-22T08:38:17.765Z,97336.98
2017-11-22T08:39:22.664Z,97344.36
2017-11-22T08:40:28.000Z,97334.94
2017-11-22T08:41:37.689Z,97338.06
2017-11-22T08:42:42.487Z,97340.75
2017-11-22T08:43:51.287Z,97339.44
2017-11-22T08:44:56.172Z,97339.87
2017-11-22T08:46:01.129Z,97337.53
2017-11-22T08:47:06.338Z,97334.23
2017-11-22T08:48:11.210Z,97335.30
2017-11-22T08:49:15.976Z,97340.79
2017-11-22T08:50:20.650Z,97333.24
2017-11-22T08:51:25.317Z,97326.84
2017-11-22T08:52:30.100Z,97329.98
2017-11-22T08:53:35.200Z,97331.23
2017-11-22T08:54:44.932Z,97338.98
2017-11-22T08:55:54.796Z,97338.75
2017-11-22T08:57:04.774Z,97342.23
2017-11-22T08:58:14.406Z,97355.16
2017-11-22T08:59:19.283Z,97345.45
2017-11-22T09:00:24.607Z,97346.56
2017-11-22T09:01:29.735Z,97344.79
2017-11-22T09:02:34.597Z,97345.45
2017-11-22T09:03:44.366Z,97349.74
2017-11-22T09:04:49.254Z,97335.56
2017-11-22T09:13:46.342Z,97330.23
2017-11-22T09:14:51.317Z,97348.10
2017-11-22T09:15:56.175Z,97365.98
2017-11-22T09:17:01.100Z,97352.82
2017-11-22T09:18:12.714Z,97363.84
2017-11-22T09:19:17.639Z,97354.34
2017-11-22T09:20:22.879Z,97354.35
2017-11-22T09:21:27.758Z,97354.66
2017-11-22T09:22:32.707Z,97357.08
2017-11-22T09:23:37.497Z,97363.17
2017-11-22T09:24:47.095Z,97354.67
2017-11-22T09:25:51.857Z,97363.92
2017-11-22T09:28:13.199Z,97353.86
2017-11-22T09:29:17.919Z,97349.38
2017-11-22T09:30:22.701Z,97343.98
2017-11-22T09:31:32.319Z,97348.19
2017-11-22T09:32:41.376Z,97360.33
2017-11-22T09:33:46.549Z,97353.81
2017-11-22T09:34:56.364Z,97359.41
2017-11-22T09:36:01.180Z,97363.37
2017-11-22T09:37:06.082Z,97353.86
2017-11-22T09:38:11.273Z,97352.48
2017-11-22T09:39:16.019Z,97351.44
2017-11-22T09:40:21.078Z,97354.43
2017-11-22T09:41:25.874Z,97362.75
2017-11-22T09:42:30.619Z,97357.57
2017-11-22T09:43:35.419Z,97358.11
2017-11-22T09:44:40.188Z,97356.26
2017-11-22T09:45:45.250Z,97356.80
2017-11-22T09:46:50.553Z,97367.73
2017-11-22T09:47:55.355Z,97356.93
2017-11-22T09:49:00.819Z,97362.70
2017-11-22T09:50:05.856Z,97345.36
2017-11-22T09:51:10.566Z,97359.13
2017-11-22T09:52:15.297Z,97352.28
2017-11-22T09:53:20.605Z,97358.63
2017-11-22T09:54:25.298Z,97346.63
2017-11-22T09:55:30.110Z,97339.84
2017-11-22T09:56:34.989Z,97342.16
2017-11-22T09:57:39.807Z,97340.61
2017-11-22T09:58:44.641Z,97338.14
2017-11-22T09:59:49.840Z,97333.22
2017-11-22T10:00:54.875Z,97332.53
2017-11-22T10:01:59.671Z,97343.37
2017-11-22T10:03:04.563Z,97357.34
2017-11-22T10:04:09.318Z,97342.22
2017-11-22T10:05:14.132Z,97341.77
2017-11-22T10:06:19.420Z,97344.12
2017-11-22T10:07:24.015Z,97357.20
2017-11-22T10:08:28.797Z,97341.66
2017-11-22T10:09:33.527Z,97333.52
2017-11-22T10:10:38.306Z,97345.48
2017-11-22T10:11:43.156Z,97358.61
2017-11-22T10:12:48.304Z,97341.30
2017-11-22T10:13:53.057Z,97344.05
2017-11-22T10:14:57.694Z,97342.61
2017-11-22T10:16:02.359Z,97347.58
2017-11-22T10:17:11.149Z,97347.28
2017-11-22T10:18:19.872Z,97343.94
2017-11-22T10:19:24.739Z,97347.69
2017-11-22T10:20:29.608Z,97346.00
2017-11-22T10:21:39.229Z,97360.02
2017-11-22T10:22:46.120Z,97358.30
2017-11-22T10:23:51.520Z,97340.52
2017-11-22T10:25:00.373Z,97333.62
2017-11-22T10:26:05.256Z,97346.63
2017-11-22T10:27:14.088Z,97343.27
2017-11-22T10:28:19.072Z,97339.63
2017-11-22T10:29:24.577Z,97340.43
2017-11-22T10:30:30.518Z,97334.22
2017-11-22T10:31:39.295Z,97336.02
2017-11-22T10:32:48.053Z,97350.42
2017-11-22T10:33:52.960Z,97340.66
2017-11-22T10:34:57.708Z,97348.26
2017-11-22T10:36:02.887Z,97350.84
2017-11-22T10:37:08.712Z,97332.70
2017-11-22T10:38:14.271Z,97330.05
2017-11-22T10:39:19.070Z,97329.47
2017-11-22T10:40:23.876Z,97338.94
2017-11-22T10:41:28.863Z,97333.64
2017-11-22T10:42:33.948Z,97333.65
2017-11-22T10:43:38.715Z,97330.15
2017-11-22T10:44:43.476Z,97334.41
2017-11-22T10:45:48.295Z,97337.13
2017-11-22T10:46:52.966Z,97334.49
2017-11-22T10:47:57.698Z,97325.08
2017-11-22T10:49:03.620Z,97321.94
2017-11-22T10:50:10.764Z,97315.27
2017-11-22T10:51:15.557Z,97320.09
2017-11-22T10:52:20.369Z,97323.03
2017-11-22T10:53:25.275Z,97317.36
2017-11-22T10:54:30.556Z,97316.75
2017-11-22T10:55:35.766Z,97316.88
2017-11-22T10:56:40.720Z,97317.78
2017-11-22T10:57:45.563Z,97320.56
2017-11-22T10:58:50.488Z,97318.48
2017-11-22T11:15:39.658Z,97321.84
2017-11-22T11:16:44.525Z,97311.70
2017-11-22T11:17:49.343Z,97316.88
2017-11-22T11:18:54.135Z,97309.64
2017-11-22T11:19:58.877Z,97311.34
2017-11-22T11:21:04.325Z,97313.51
2017-11-22T11:22:09.093Z,97312.84
2017-11-22T11:23:13.906Z,97311.76
2017-11-22T11:24:18.743Z,97310.82
2017-11-22T11:25:23.483Z,97306.38
2017-11-22T11:26:28.202Z,97306.38
2017-11-22T11:27:33.410Z,97315.23
2017-11-22T11:28:38.551Z,97307.69
2017-11-22T11:29:43.550Z,97304.95
2017-11-22T11:30:48.361Z,97307.80
2017-11-22T11:31:53.158Z,97309.98
2017-11-22T11:32:57.919Z,97307.45
2017-11-22T11:34:03.276Z,97307.78
2017-11-22T11:35:08.122Z,97298.37
2017-11-22T11:36:47.198Z,97300.25
2017-11-22T11:37:52.128Z,97298.27
2017-11-22T11:38:56.969Z,97295.23
2017-11-22T11:40:02.270Z,97289.44
2017-11-22T11:41:07.485Z,97294.24
2017-11-22T11:42:13.303Z,97296.47
2017-11-22T11:43:18.130Z,97302.81
2017-11-22T11:44:22.965Z,97300.83
2017-11-22T11:45:27.676Z,97300.88
2017-11-22T11:46:32.714Z,97287.83
2017-11-22T11:47:38.018Z,97290.09
2017-11-22T11:48:42.894Z,97288.97
2017-11-22T11:49:47.757Z,97289.19
2017-11-22T11:50:52.548Z,97284.55
2017-11-22T11:51:57.545Z,97287.91
2017-11-22T11:53:02.527Z,97283.50
2017-11-22T11:54:07.776Z,97291.95
2017-11-22T11:55:12.687Z,97292.00
2017-11-22T11:56:17.675Z,97286.80
2017-11-22T11:57:22.521Z,97280.31
2017-11-22T11:58:27.359Z,97277.11
2017-11-22T11:59:32.226Z,97275.28
2017-11-22T12:00:38.028Z,97280.48
2017-11-22T12:01:42.937Z,97271.55
2017-11-22T12:02:47.868Z,97275.29
2017-11-22T12:03:52.717Z,97273.97
2017-11-22T12:04:57.618Z,97272.86
2017-11-22T12:06:02.445Z,97268.10
2017-11-22T12:07:07.714Z,97271.63
2017-11-22T12:08:14.314Z,97266.50
2017-11-22T12:09:19.320Z,97262.64
2017-11-22T12:10:24.273Z,97264.16
2017-11-22T12:11:29.277Z,97263.88
2017-11-22T12:12:34.035Z,97270.31
2017-11-22T12:13:39.351Z,97268.20
2017-11-22T12:14:45.272Z,97263.41
2017-11-22T12:15:50.075Z,97266.01
2017-11-22T12:16:54.843Z,97269.09
2017-11-22T12:18:02.769Z,97270.09
2017-11-22T12:19:07.720Z,97269.93
2017-11-22T12:20:13.059Z,97270.29
2017-11-22T12:21:17.951Z,97265.36
2017-11-22T12:22:27.596Z,97265.06
2017-11-22T12:23:43.445Z,97258.82
2017-11-22T12:24:48.269Z,97260.95
2017-11-22T12:25:53.107Z,97273.91
2017-11-22T12:26:58.337Z,97264.34
2017-11-22T12:29:24.742Z,97264.19
2017-11-22T12:30:29.489Z,97267.59
2017-11-22T12:31:34.378Z,97265.14
2017-11-22T12:32:39.102Z,97266.14
2017-11-22T12:33:44.764Z,97260.31
2017-11-22T12:34:49.598Z,97261.40
2017-11-22T12:35:54.599Z,97249.20
2017-11-22T12:36:59.473Z,97254.27
2017-11-22T12:38:04.352Z,97263.14
2017-11-22T12:39:09.107Z,97253.77
2017-11-22T12:40:15.535Z,97263.84
2017-11-22T12:41:20.406Z,97262.05
2017-11-22T12:42:25.287Z,97262.85
2017-11-22T12:43:31.138Z,97263.78
2017-11-22T12:44:39.490Z,97254.93
2017-11-22T12:45:44.615Z,97246.77
2017-11-22T12:46:49.365Z,97245.50
2017-11-22T12:47:54.236Z,97242.57
2017-11-22T12:48:58.988Z,97243.63
2017-11-22T12:50:03.845Z,97245.11
2017-11-22T12:51:08.726Z,97244.47
2017-11-22T12:52:14.392Z,97245.61
2017-11-22T12:53:19.320Z,97248.81
2017-11-22T12:54:24.327Z,97242.41
2017-11-22T12:55:29.257Z,97257.81
2017-11-22T12:56:34.111Z,97243.95
2017-11-22T12:57:54.576Z,97247.38
2017-11-22T12:58:59.403Z,97243.84
2017-11-22T13:00:04.222Z,97238.45
2017-11-22T13:01:09.076Z,97245.92
2017-11-22T13:02:13.903Z,97255.14
2017-11-22T13:03:18.766Z,97250.48
2017-11-22T13:04:24.012Z,97248.82
2017-11-22T13:05:28.897Z,97248.16
2017-11-22T13:06:33.748Z,97250.76
2017-11-22T13:07:38.877Z,97246.80
2017-11-22T13:08:43.682Z,97242.44
2017-11-22T13:09:48.417Z,97239.38
2017-11-22T13:10:58.492Z,97243.45
2017-11-22T13:12:03.378Z,97240.84
2017-11-22T13:13:09.013Z,97233.12
2017-11-22T13:14:15.745Z,97229.69
2017-11-22T13:15:20.488Z,97230.81
2017-11-22T13:16:25.292Z,97227.73
2017-11-22T13:17:30.835Z,97228.30
2017-11-22T13:18:35.763Z,97230.86
2017-11-22T13:19:41.046Z,97224.34
2017-11-22T13:20:45.815Z,97227.26
2017-11-22T13:21:50.635Z,97227.61
2017-11-22T13:22:55.414Z,97221.98
2017-11-22T13:24:01.575Z,97226.59
2017-11-22T13:25:06.352Z,97220.59
2017-11-22T13:26:11.199Z,97222.86
2017-11-22T13:27:21.754Z,97214.45
2017-11-22T13:28:26.648Z,97220.13